Flight Track Log - Related Links

Times and Time Zones

All times are in EDT time to prevent confusion due to time zone crossing. See the RPA3321 flight status page for this flight to view local times or setup timezone preferences in your user account.

Time Position Orientation Groundspeed Altitude Reporting Facility
EDT Latitude Longitude Course Direction KTS MPH feet Rate Location/Type
Mon 05:38:21 AM 42.7297 -73.8081 166° South 150 173 1,200  Level Boston Center
Mon 05:38:39 AM 42.7172 -73.8050 170° South 153 176 2,100 2,077 Climbing Boston Center
Mon 05:39:39 AM 42.6669 -73.8294 200° South 232 267 3,900 1,895 Climbing Boston Center
Mon 05:40:00 AM 42.5291 -73.9973 180° South  Level Estimated
Mon 05:40:14 AM 42.6622 -73.8772 262° West 249 287 5,100  Level Boston Center
Mon 05:41:00 AM 42.4557 -74.0621 172° South  Level Estimated
Mon 05:41:13 AM 42.6692 -73.9761 275° West 260 299 7,900  Level Boston Center
Mon 05:42:00 AM 42.3929 -73.9794 136° Southeast  Level FlightAware Approximate
Mon 05:42:13 AM 42.6761 -74.0808 275° West 276 318 10,900  Level Boston Center
Mon 05:43:00 AM 42.3205 -74.0461 166° South  Level Estimated
Mon 05:43:14 AM 42.6722 -74.2078 268° West 297 342 13,200  Level Boston Center
Mon 05:44:13 AM 42.5967 -74.2311 193° South 273 314 15,300 2,319 Climbing Boston Center
Mon 05:45:13 AM 42.5061 -74.1636 151° Southeast 290 334 17,800 2,100 Climbing Boston Center
Mon 05:46:13 AM 42.4169 -74.1331 166° South 331 381 19,500 1,750 Climbing Boston Center
Mon 05:47:13 AM 42.3208 -74.1472 186° South 336 387 21,300 1,750 Climbing Boston Center
Mon 05:48:13 AM 42.2247 -74.1644 188° South 342 394 23,000 1,650 Climbing Boston Center
Mon 05:49:13 AM 42.1264 -74.1814 187° South 354 407 24,600 1,388 Climbing Boston Center
Mon 05:50:14 AM 42.0242 -74.2008 188° South 359 413 25,800 464 Climbing Boston Center
Mon 05:52:14 AM 41.8231 -74.2308 186° South 352 405 26,000 67 Climbing New York Center
Mon 05:53:14 AM 41.7225 -74.2478 187° South 357 411 26,000  Level New York Center
Mon 05:54:14 AM 41.6244 -74.2619 186° South 357 411 26,000  Level New York Center
Mon 05:55:14 AM 41.5386 -74.2742 186° South 357 411 26,000  Level New York Center
Mon 05:56:14 AM 41.4381 -74.2939 188° South 357 411 26,000  Level New York Center
Mon 05:57:14 AM 41.3417 -74.3108 188° South 357 411 26,000  Level New York Center
Mon 05:58:14 AM 41.2394 -74.3247 186° South 362 417 26,000  Level New York Center
Mon 06:04:04 AM 40.7780 -74.6910 186° South 100 115 26,000  Level FlightAware ADS-B
Mon 06:04:45 AM 40.7650 -74.7030 215° Southwest 100 115 26,000  Level FlightAware ADS-B
Mon 06:05:21 AM 40.7530 -74.7130 212° Southwest 100 115 26,000  Level FlightAware ADS-B
Mon 06:05:57 AM 40.7410 -74.7220 210° Southwest 100 115 26,000  Level FlightAware ADS-B
Mon 06:06:33 AM 40.7290 -74.7320 212° Southwest 100 115 26,000  Level FlightAware ADS-B
Mon 06:07:09 AM 40.7170 -74.7420 212° Southwest 100 115 26,000  Level FlightAware ADS-B
Mon 06:07:46 AM 40.7040 -74.7520 210° Southwest 100 115 26,000 -672 Level FlightAware ADS-B
Mon 06:09:14 AM 40.3672 -75.1650 210° Southwest 369 425 24,600 -548 Descending New York Center
Mon 06:15:15 AM 39.9510 -75.6380 210° Southwest 100 115 21,900 -500 Descending FlightAware ADS-B
Mon 06:15:50 AM 39.9180 -75.6920 231° Southwest 345 397 21,300 -701 Descending FlightAware ADS-B
Mon 06:16:32 AM 39.8810 -75.7490 230° Southwest 332 382 21,000 -231 Descending FlightAware ADS-B
Mon 06:17:08 AM 39.8500 -75.7960 229° Southwest 332 382 21,000  Level FlightAware ADS-B
Mon 06:17:44 AM 39.8200 -75.8430 230° Southwest 332 382 21,000  Level FlightAware ADS-B
Mon 06:18:21 AM 39.7890 -75.8910 230° Southwest 332 382 21,000  Level FlightAware ADS-B
Mon 06:18:57 AM 39.7590 -75.9380 230° Southwest 332 382 21,000  Level FlightAware ADS-B
Mon 06:19:34 AM 39.7280 -75.9860 230° Southwest 332 382 21,000 -3,107 Level FlightAware ADS-B
Mon 06:20:49 AM 39.6167 -76.1667 230° Southwest 318 366 15,200 -3,185 Descending Potomac TRACON
Mon 06:21:44 AM 39.5667 -76.2500 232° Southwest 317 365 14,100 -1,148 Descending Potomac TRACON
Mon 06:22:44 AM 39.5000 -76.3333 224° Southwest 317 365 13,000 -1,158 Descending Potomac TRACON
Mon 06:23:38 AM 39.4500 -76.4000 226° Southwest 300 345 11,900 -1,167 Descending Potomac TRACON
Mon 06:24:32 AM 39.4000 -76.4667 226° Southwest 301 346 10,900 -1,000 Descending Potomac TRACON
Mon 06:25:32 AM 39.3333 -76.5333 218° Southwest 292 336 10,000 -450 Descending Potomac TRACON
Mon 06:26:32 AM 39.2500 -76.5833 205° Southwest 293 337 10,000  Level Potomac TRACON
Mon 06:27:26 AM 39.2000 -76.6333 218° Southwest 294 338 10,000  Level Potomac TRACON
Mon 06:28:26 AM 39.1333 -76.7000 218° Southwest 296 341 10,000 -650 Level Potomac TRACON
Mon 06:29:26 AM 39.0833 -76.7667 226° Southwest 289 333 8,700 -1,050 Descending Potomac TRACON
Mon 06:30:26 AM 39.0167 -76.8333 218° Southwest 262 302 7,900 -905 Descending Potomac TRACON
Mon 06:31:32 AM 38.9667 -76.9000 226° Southwest 214 246 6,800 -898 Descending Potomac TRACON
Mon 06:32:33 AM 38.9167 -76.9333 207° Southwest 221 254 6,000 -991 Descending Potomac TRACON
Mon 06:33:27 AM 38.8667 -76.9500 195° South 220 253 4,900 -1,053 Descending Potomac TRACON
Mon 06:34:27 AM 38.8167 -76.9500 180° South 198 228 4,000 -645 Descending Potomac TRACON
Mon 06:35:28 AM 38.7667 -76.9500 180° South 180 207 3,600 -661 Descending Potomac TRACON
Mon 06:36:34 AM 38.7167 -76.9333 165° South 178 205 2,600 -762 Descending Potomac TRACON
Mon 06:37:34 AM 38.7000 -77.0000 252° West 188 216 2,000 -316 Descending Potomac TRACON
Mon 06:38:28 AM 38.7333 -77.0167 339° North 175 201 2,000 -421 Level Potomac TRACON
Mon 06:39:28 AM 38.7833 -77.0333 345° North 140 161 1,200 -700 Descending Potomac TRACON
Mon 06:40:28 AM 38.8167 -77.0333 360° North 119 137 600 -600 Descending Potomac TRACON

Login

Don't have an account? Register now (free) for customized features, flight alerts, and more!